Time;durP1;ratioP1;P1;durP2;ratioP2;P2;SDS_P1;SDS_P2;PMS_P1;PMS_P2;Temp;Humidity;BMP_temperature;BMP_pressure;BME280_temperature;BME280_humidity;BME280_pressure;Samples;Min_cycle;Max_cycle;Signal;HPM_P1;HPM_P2
2023/07/13 00:00:56;;;;;;;6.03;1.90;;;21.80;75.10;;;;;;5039899;28;20501;-70
2023/07/13 00:03:21;;;;;;;1.93;1.83;;;21.70;75.50;;;;;;5043005;28;20196;-70
2023/07/13 00:05:56;;;;;;;1.90;1.77;;;21.70;75.40;;;;;;5041006;28;20529;-70
2023/07/13 00:08:22;;;;;;;2.30;2.10;;;21.80;75.30;;;;;;5058738;28;20212;-70
2023/07/13 00:10:54;;;;;;;2.33;2.13;;;21.80;75.30;;;;;;5040224;28;20479;-68
2023/07/13 00:13:20;;;;;;;3.07;2.20;;;21.80;75.40;;;;;;5042688;28;20484;-69
2023/07/13 00:15:46;;;;;;;2.20;2.10;;;21.70;75.20;;;;;;5045014;28;20474;-69
2023/07/13 00:18:12;;;;;;;2.20;2.00;;;21.70;75.20;;;;;;5029342;28;20217;-70
2023/07/13 00:20:38;;;;;;;2.90;2.00;;;21.70;75.40;;;;;;5028816;28;20508;-69
2023/07/13 00:23:03;;;;;;;2.20;2.00;;;21.60;75.50;;;;;;5039964;28;20224;-70
2023/07/13 00:25:29;;;;;;;2.07;1.70;;;21.60;75.70;;;;;;5044093;28;20233;-70
2023/07/13 00:27:55;;;;;;;2.93;2.40;;;21.70;75.70;;;;;;5028535;28;20221;-70
2023/07/13 00:30:21;;;;;;;2.33;2.10;;;21.60;75.60;;;;;;5044863;28;20227;-70
2023/07/13 00:32:47;;;;;;;4.67;2.00;;;21.60;75.40;;;;;;5041154;28;20450;-68
2023/07/13 00:35:14;;;;;;;2.60;2.40;;;21.60;75.50;;;;;;5046962;28;20220;-69
2023/07/13 00:37:40;;;;;;;2.60;2.40;;;21.60;76.50;;;;;;5045022;28;20221;-70
2023/07/13 00:40:06;;;;;;;2.90;2.70;;;21.60;75.60;;;;;;5030489;28;20482;-70
2023/07/13 00:42:32;;;;;;;2.27;2.00;;;21.60;75.50;;;;;;5028998;28;20233;-70
2023/07/13 00:45:27;;;;;;;2.00;1.80;;;21.50;75.60;;;;;;5029129;28;20598;-70
2023/07/13 00:47:55;;;;;;;3.47;2.40;;;21.40;75.70;;;;;;4969010;28;20221;-69
2023/07/13 00:50:23;;;;;;;2.27;1.83;;;21.30;75.90;;;;;;5023362;28;20531;-69
2023/07/13 00:52:53;;;;;;;2.00;1.83;;;21.20;76.30;;;;;;5031522;28;20831;-70
2023/07/13 00:55:21;;;;;;;2.90;2.13;;;21.20;76.60;;;;;;5021622;28;20536;-69
2023/07/13 00:57:48;;;;;;;3.50;1.80;;;21.10;76.70;;;;;;5041048;28;20447;-70
2023/07/13 01:00:14;;;;;;;3.23;2.70;;;21.20;76.70;;;;;;5048293;28;20466;-69
2023/07/13 01:02:43;;;;;;;2.00;1.90;;;21.20;76.60;;;;;;5039302;28;20593;-70
2023/07/13 01:05:19;;;;;;;1.97;1.87;;;21.20;76.30;;;;;;5036536;28;20488;-68
2023/07/13 01:07:47;;;;;;;2.10;2.00;;;21.20;76.50;;;;;;5031103;28;20450;-69
2023/07/13 01:10:13;;;;;;;2.83;2.20;;;21.00;76.80;;;;;;5026822;28;20462;-70
2023/07/13 01:12:40;;;;;;;1.53;1.43;;;21.00;77.00;;;;;;5016191;28;20451;-70
2023/07/13 01:15:26;;;;;;;3.20;2.33;;;21.00;76.90;;;;;;5050087;28;20466;-70
2023/07/13 01:17:52;;;;;;;2.70;2.50;;;21.10;76.80;;;;;;5025272;28;20463;-69
2023/07/13 01:20:18;;;;;;;2.30;2.10;;;21.00;76.70;;;;;;5023665;28;20447;-69
2023/07/13 01:22:44;;;;;;;4.20;2.20;;;21.00;76.90;;;;;;5036653;28;20225;-69
2023/07/13 01:25:09;;;;;;;2.00;1.80;;;21.00;76.90;;;;;;5025148;28;20225;-70
2023/07/13 01:27:35;;;;;;;2.70;2.17;;;20.90;77.10;;;;;;5034335;28;20526;-70
2023/07/13 01:30:02;;;;;;;2.23;1.80;;;20.90;77.10;;;;;;5038544;28;20219;-69
2023/07/13 01:32:28;;;;;;;3.67;1.90;;;20.90;77.10;;;;;;5028239;28;20445;-69
2023/07/13 01:34:55;;;;;;;1.77;1.67;;;20.80;77.20;;;;;;5031879;28;20769;-70
2023/07/13 01:37:21;;;;;;;2.27;2.07;;;20.60;77.40;;;;;;5040299;28;20554;-70
2023/07/13 01:39:47;;;;;;;2.63;1.80;;;20.50;77.90;;;;;;5035194;28;20464;-69
2023/07/13 01:42:13;;;;;;;2.00;1.90;;;20.50;78.10;;;;;;5044469;28;20482;-69
2023/07/13 01:44:40;;;;;;;1.90;1.80;;;20.30;78.10;;;;;;5042458;28;20223;-69
2023/07/13 01:47:07;;;;;;;2.40;1.77;;;20.40;78.30;;;;;;5043738;28;20490;-69
2023/07/13 01:49:32;;;;;;;3.13;1.90;;;20.30;78.10;;;;;;5036063;28;20491;-70
2023/07/13 01:51:58;;;;;;;4.00;2.23;;;20.20;78.40;;;;;;5034114;28;20596;-69
2023/07/13 01:54:24;;;;;;;1.70;1.60;;;20.20;78.80;;;;;;5044275;28;20227;-70
2023/07/13 01:56:50;;;;;;;2.77;1.80;;;20.30;78.30;;;;;;5030458;28;20220;-70
2023/07/13 01:59:16;;;;;;;1.70;1.60;;;20.40;78.00;;;;;;5037507;28;20465;-70
2023/07/13 02:01:41;;;;;;;2.70;2.00;;;20.40;78.00;;;;;;5035614;28;20229;-69
2023/07/13 02:04:07;;;;;;;2.00;1.70;;;20.40;78.10;;;;;;5025733;28;20212;-69
2023/07/13 02:06:33;;;;;;;1.80;1.70;;;20.40;78.20;;;;;;5047354;28;20216;-68
2023/07/13 02:08:59;;;;;;;1.53;1.43;;;20.50;78.00;;;;;;5031068;28;20244;-69
2023/07/13 02:11:32;;;;;;;3.40;3.20;;;20.50;78.00;;;;;;5031277;28;20451;-70
2023/07/13 02:14:02;;;;;;;2.80;2.03;;;20.50;77.90;;;;;;5033323;28;20459;-69
2023/07/13 02:16:28;;;;;;;2.67;2.47;;;20.40;78.00;;;;;;5013893;28;20475;-68
2023/07/13 02:18:55;;;;;;;2.30;1.60;;;20.40;78.00;;;;;;5048174;28;20712;-69
2023/07/13 02:21:21;;;;;;;2.40;2.20;;;20.20;78.80;;;;;;5027766;28;20463;-70
2023/07/13 02:23:47;;;;;;;2.17;2.00;;;20.10;79.10;;;;;;5030905;28;20498;-69
2023/07/13 02:26:16;;;;;;;2.33;2.13;;;20.10;79.20;;;;;;5041189;28;20475;-70
2023/07/13 02:28:41;;;;;;;2.77;2.50;;;20.10;79.10;;;;;;5035870;28;20455;-70
2023/07/13 02:31:09;;;;;;;3.73;2.10;;;20.20;78.90;;;;;;5030082;28;20455;-68
2023/07/13 02:33:35;;;;;;;4.00;1.90;;;20.20;79.00;;;;;;5050699;28;20237;-69
2023/07/13 02:36:01;;;;;;;2.20;1.90;;;20.20;79.00;;;;;;5032964;28;20548;-68
2023/07/13 02:38:27;;;;;;;4.13;2.50;;;20.20;78.90;;;;;;5023978;28;20488;-70
2023/07/13 02:40:53;;;;;;;2.27;2.17;;;20.10;78.90;;;;;;5030757;28;20212;-70
2023/07/13 02:43:19;;;;;;;2.30;2.10;;;20.10;78.90;;;;;;5035229;28;20209;-69
2023/07/13 02:45:46;;;;;;;1.73;1.63;;;20.10;78.90;;;;;;5042089;28;20471;-68
2023/07/13 02:48:14;;;;;;;2.37;2.17;;;20.10;79.80;;;;;;5025236;28;20885;-69
2023/07/13 02:50:39;;;;;;;5.77;1.67;;;20.00;79.20;;;;;;5038511;28;20593;-70
2023/07/13 02:53:05;;;;;;;5.30;2.03;;;20.00;79.30;;;;;;5023384;28;20460;-69
2023/07/13 02:55:31;;;;;;;2.73;2.10;;;19.90;79.30;;;;;;5022303;28;20235;-68
2023/07/13 02:57:57;;;;;;;4.20;2.17;;;19.90;79.30;;;;;;5036342;28;20312;-69
2023/07/13 03:00:23;;;;;;;2.10;1.90;;;19.90;79.50;;;;;;5046976;28;20246;-69
2023/07/13 03:02:48;;;;;;;2.07;1.90;;;19.80;79.80;;;;;;5031412;28;20584;-70
2023/07/13 03:05:16;;;;;;;4.60;2.27;;;19.80;79.80;;;;;;5037327;28;20507;-69
2023/07/13 03:07:43;;;;;;;2.10;1.90;;;19.70;80.00;;;;;;5034950;28;20459;-70
2023/07/13 03:10:10;;;;;;;3.33;3.03;;;19.70;80.20;;;;;;5034926;28;20467;-69
2023/07/13 03:12:42;;;;;;;2.70;2.23;;;19.60;80.30;;;;;;5031107;28;20455;-69
2023/07/13 03:15:16;;;;;;;2.30;2.10;;;19.50;80.50;;;;;;5054980;28;20466;-69
2023/07/13 03:17:43;;;;;;;3.20;2.10;;;19.50;80.80;;;;;;5051169;28;20448;-68
2023/07/13 03:20:09;;;;;;;2.30;1.93;;;19.40;80.80;;;;;;5045788;28;20475;-69
2023/07/13 03:22:35;;;;;;;2.60;2.40;;;19.30;81.20;;;;;;5025949;28;20224;-69
2023/07/13 03:25:01;;;;;;;2.23;1.73;;;19.10;81.70;;;;;;5045801;28;20475;-69
2023/07/13 03:27:27;;;;;;;2.10;2.00;;;19.10;82.00;;;;;;5028674;28;20208;-70
2023/07/13 03:29:54;;;;;;;2.33;2.03;;;19.00;82.10;;;;;;5026339;28;20460;-69
2023/07/13 03:32:20;;;;;;;2.37;2.17;;;18.90;82.50;;;;;;5035941;28;20459;-69
2023/07/13 03:34:45;;;;;;;4.27;2.20;;;18.70;83.50;;;;;;5051388;28;20602;-71
2023/07/13 03:37:12;;;;;;;2.53;2.20;;;18.60;83.60;;;;;;5023205;28;20212;-69
2023/07/13 03:39:38;;;;;;;4.17;2.20;;;18.50;84.20;;;;;;5035531;28;20450;-69
2023/07/13 03:42:04;;;;;;;3.03;2.13;;;18.60;84.30;;;;;;5040067;28;20216;-70
2023/07/13 03:44:30;;;;;;;2.87;2.30;;;18.70;84.00;;;;;;5032259;28;20460;-68
2023/07/13 03:46:57;;;;;;;3.77;2.53;;;18.60;84.10;;;;;;5032165;28;20456;-69
2023/07/13 03:49:23;;;;;;;2.40;2.10;;;18.70;83.70;;;;;;5017812;28;20460;-69
2023/07/13 03:51:49;;;;;;;3.67;2.50;;;18.80;84.00;;;;;;5016300;28;20451;-68
2023/07/13 03:54:14;;;;;;;2.53;2.33;;;18.80;84.00;;;;;;5038708;28;20229;-70
2023/07/13 03:56:40;;;;;;;3.73;2.57;;;18.70;84.30;;;;;;5027338;28;20221;-70
2023/07/13 03:59:08;;;;;;;2.57;2.37;;;18.80;83.80;;;;;;5034581;28;20211;-72
2023/07/13 04:01:34;;;;;;;2.40;1.87;;;18.90;83.80;;;;;;5051564;28;20523;-69
2023/07/13 04:04:00;;;;;;;2.93;2.67;;;18.90;83.80;;;;;;5022424;28;20495;-70
2023/07/13 04:06:29;;;;;;;2.07;1.70;;;18.90;83.60;;;;;;5026780;28;20232;-70
2023/07/13 04:09:00;;;;;;;2.80;2.60;;;18.90;83.50;;;;;;5019259;28;20567;-69
2023/07/13 04:11:29;;;;;;;2.80;2.10;;;19.00;84.00;;;;;;5031816;28;20451;-70
2023/07/13 04:13:55;;;;;;;2.97;2.20;;;18.90;83.80;;;;;;5037359;28;20451;-70
2023/07/13 04:16:21;;;;;;;2.40;2.20;;;18.90;83.70;;;;;;5026802;28;20451;-69
2023/07/13 04:18:48;;;;;;;4.80;2.10;;;19.10;83.70;;;;;;5044640;28;20458;-69
2023/07/13 04:21:14;;;;;;;6.10;2.30;;;19.10;83.70;;;;;;5032095;28;20237;-71
2023/07/13 04:23:40;;;;;;;3.53;2.57;;;19.10;84.00;;;;;;5038720;28;20516;-70
2023/07/13 04:26:06;;;;;;;2.50;2.13;;;18.90;84.30;;;;;;5037027;28;20984;-70
2023/07/13 04:28:32;;;;;;;2.40;2.20;;;18.90;84.50;;;;;;5040090;28;20208;-70
2023/07/13 04:30:58;;;;;;;6.00;2.20;;;18.90;85.30;;;;;;5038069;28;20459;-69
2023/07/13 04:33:24;;;;;;;2.13;2.03;;;18.90;84.30;;;;;;5037182;28;20450;-70
2023/07/13 04:35:54;;;;;;;5.43;2.80;;;19.00;84.30;;;;;;5020703;28;20225;-69
2023/07/13 04:38:20;;;;;;;2.33;2.00;;;19.00;85.00;;;;;;5022916;28;20213;-70
2023/07/13 04:40:47;;;;;;;2.50;2.30;;;19.10;84.40;;;;;;5035516;28;20455;-69
2023/07/13 04:43:13;;;;;;;2.50;2.30;;;19.10;84.20;;;;;;5040654;28;20451;-70
2023/07/13 04:45:39;;;;;;;2.90;1.83;;;19.10;84.50;;;;;;5043708;28;20877;-70
2023/07/13 04:48:04;;;;;;;1.80;1.57;;;19.00;85.20;;;;;;5040456;28;20225;-70
2023/07/13 04:50:30;;;;;;;3.10;1.80;;;19.10;84.50;;;;;;5040714;28;20702;-69
2023/07/13 04:52:56;;;;;;;3.80;2.27;;;19.20;83.80;;;;;;5042880;28;20474;-70
2023/07/13 04:55:22;;;;;;;1.97;1.83;;;19.30;84.10;;;;;;5040505;28;20600;-68
2023/07/13 04:57:48;;;;;;;2.63;1.87;;;19.40;84.00;;;;;;5042244;28;20687;-70
2023/07/13 05:00:15;;;;;;;1.80;1.70;;;19.40;84.00;;;;;;5028296;28;20213;-70
2023/07/13 05:02:44;;;;;;;3.00;2.33;;;19.40;84.10;;;;;;5031217;28;20458;-70
2023/07/13 05:05:10;;;;;;;5.30;1.90;;;19.20;85.00;;;;;;5046446;28;20482;-70
2023/07/13 05:07:36;;;;;;;3.57;1.60;;;19.10;85.70;;;;;;5039733;28;20458;-71
2023/07/13 05:10:03;;;;;;;2.20;2.00;;;19.10;85.50;;;;;;5044214;28;20753;-70
2023/07/13 05:12:29;;;;;;;2.13;1.90;;;19.10;85.40;;;;;;5040114;28;20220;-69
2023/07/13 05:14:56;;;;;;;2.03;1.83;;;19.20;85.70;;;;;;5030885;28;20473;-70
2023/07/13 05:17:22;;;;;;;2.47;2.10;;;19.20;85.70;;;;;;5036447;28;20463;-70
2023/07/13 05:19:48;;;;;;;2.00;1.80;;;19.20;85.70;;;;;;5029342;28;20490;-69
2023/07/13 05:22:14;;;;;;;1.83;1.57;;;19.20;85.90;;;;;;5028456;28;20545;-70
2023/07/13 05:24:40;;;;;;;3.13;2.07;;;19.20;86.00;;;;;;5024188;28;20584;-70
2023/07/13 05:27:06;;;;;;;2.03;1.93;;;19.20;85.90;;;;;;5040884;28;20266;-70
2023/07/13 05:29:31;;;;;;;2.50;2.07;;;19.30;85.80;;;;;;5026187;28;20699;-70
2023/07/13 05:31:57;;;;;;;3.23;1.90;;;19.30;85.90;;;;;;5029776;28;20216;-68
2023/07/13 05:34:23;;;;;;;3.73;2.13;;;19.10;86.70;;;;;;5043073;28;20216;-71
2023/07/13 05:36:49;;;;;;;1.87;1.77;;;19.10;86.70;;;;;;5028437;28;20224;-69
2023/07/13 05:39:15;;;;;;;2.30;2.10;;;19.10;87.20;;;;;;5037336;28;20245;-68
2023/07/13 05:41:41;;;;;;;2.00;1.90;;;19.00;87.30;;;;;;5027346;28;20264;-70
2023/07/13 05:44:07;;;;;;;4.30;2.10;;;18.80;88.80;;;;;;5025316;28;20475;-69
2023/07/13 05:46:33;;;;;;;2.90;2.20;;;18.80;89.20;;;;;;5041995;28;20960;-68
2023/07/13 05:48:59;;;;;;;2.40;2.20;;;18.70;89.80;;;;;;5029558;28;20213;-69
2023/07/13 05:51:25;;;;;;;2.20;1.83;;;18.70;89.60;;;;;;5040374;28;20816;-69
2023/07/13 05:53:50;;;;;;;2.67;2.37;;;18.60;90.20;;;;;;5025224;28;20209;-70
2023/07/13 05:56:16;;;;;;;2.20;2.00;;;18.60;90.50;;;;;;5043496;28;20228;-70
2023/07/13 05:58:42;;;;;;;1.93;1.80;;;18.60;90.40;;;;;;5038587;28;20251;-70
2023/07/13 06:01:11;;;;;;;2.60;1.83;;;18.50;90.80;;;;;;5041398;28;20224;-72
2023/07/13 06:03:40;;;;;;;3.10;2.80;;;18.50;90.90;;;;;;5027003;28;20216;-69
2023/07/13 06:06:07;;;;;;;3.93;1.50;;;18.70;90.60;;;;;;5029220;28;20831;-70
2023/07/13 06:08:33;;;;;;;1.70;1.60;;;18.80;90.80;;;;;;5038393;28;20885;-71
2023/07/13 06:11:04;;;;;;;2.07;1.87;;;18.60;91.10;;;;;;5024508;28;20476;-69
2023/07/13 06:13:30;;;;;;;1.87;1.77;;;18.60;91.20;;;;;;5029781;28;20212;-70
2023/07/13 06:15:55;;;;;;;1.63;1.53;;;18.70;91.30;;;;;;5039460;28;20550;-70
2023/07/13 06:18:21;;;;;;;1.80;1.70;;;18.70;91.30;;;;;;5044192;28;20239;-69
2023/07/13 06:20:47;;;;;;;3.20;1.77;;;18.90;91.30;;;;;;5043357;28;20229;-69
2023/07/13 06:23:12;;;;;;;2.13;2.03;;;19.00;91.30;;;;;;5038316;28;20283;-70
2023/07/13 06:25:39;;;;;;;2.23;2.03;;;18.80;91.50;;;;;;5036859;28;20326;-69
2023/07/13 06:28:05;;;;;;;3.33;1.90;;;18.80;91.80;;;;;;5024104;28;20216;-70
2023/07/13 06:30:31;;;;;;;4.10;2.27;;;18.80;91.80;;;;;;5035168;28;20454;-69
2023/07/13 06:32:57;;;;;;;1.67;1.57;;;18.90;92.00;;;;;;5039515;28;20232;-70
2023/07/13 06:35:23;;;;;;;3.30;2.03;;;19.00;91.80;;;;;;5041215;28;20467;-70
2023/07/13 06:37:49;;;;;;;3.83;3.50;;;19.20;91.70;;;;;;5043622;28;20224;-70
2023/07/13 06:40:14;;;;;;;3.77;2.10;;;19.20;92.00;;;;;;5035742;28;20221;-70
2023/07/13 06:42:40;;;;;;;3.60;1.90;;;19.20;91.90;;;;;;5037188;28;20727;-70
2023/07/13 06:45:06;;;;;;;2.30;1.63;;;19.30;91.90;;;;;;5027363;28;20227;-70
2023/07/13 06:47:32;;;;;;;1.70;1.60;;;19.40;91.90;;;;;;5039492;28;20220;-70
2023/07/13 06:49:57;;;;;;;2.20;1.70;;;19.40;91.70;;;;;;5040406;28;20474;-69
2023/07/13 06:52:23;;;;;;;1.70;1.60;;;19.40;91.60;;;;;;5042345;28;20235;-70
2023/07/13 06:54:49;;;;;;;3.97;2.13;;;19.50;91.40;;;;;;5030703;28;20209;-70
2023/07/13 06:57:14;;;;;;;2.20;2.00;;;19.50;91.30;;;;;;5029573;28;20231;-68
2023/07/13 06:59:40;;;;;;;2.40;1.40;;;19.60;91.10;;;;;;5036729;28;20225;-70
2023/07/13 07:02:08;;;;;;;2.27;1.30;;;19.80;90.90;;;;;;5038329;28;20216;-69
2023/07/13 07:04:34;;;;;;;2.23;1.20;;;19.80;90.40;;;;;;5028682;28;20228;-70
2023/07/13 07:06:59;;;;;;;2.83;1.43;;;19.90;90.20;;;;;;5035755;28;20526;-70
2023/07/13 07:09:25;;;;;;;2.20;1.57;;;19.90;90.10;;;;;;5041980;28;20227;-70
2023/07/13 07:11:51;;;;;;;2.27;1.33;;;20.00;90.10;;;;;;5030544;28;20217;-70
2023/07/13 07:14:17;;;;;;;3.80;1.60;;;20.10;90.00;;;;;;5040583;28;20213;-70
2023/07/13 07:16:43;;;;;;;1.57;1.47;;;20.10;90.00;;;;;;5022274;28;20224;-70
2023/07/13 07:19:08;;;;;;;1.93;1.40;;;20.30;90.10;;;;;;5035800;28;20463;-70
2023/07/13 07:21:34;;;;;;;1.60;1.50;;;20.30;90.00;;;;;;5024016;28;20216;-69
2023/07/13 07:24:00;;;;;;;1.60;1.50;;;20.40;90.10;;;;;;5042973;28;20683;-70
2023/07/13 07:26:26;;;;;;;1.63;1.47;;;20.50;90.20;;;;;;5031304;28;20226;-70
2023/07/13 07:28:52;;;;;;;1.63;1.30;;;20.60;89.80;;;;;;5034390;28;20209;-70
2023/07/13 07:31:17;;;;;;;1.37;1.27;;;20.70;89.80;;;;;;5043491;28;20462;-70
2023/07/13 07:33:43;;;;;;;2.50;1.03;;;20.80;89.30;;;;;;5026058;28;20738;-70
2023/07/13 07:36:09;;;;;;;1.97;1.07;;;20.90;89.30;;;;;;5029803;28;20572;-69
2023/07/13 07:38:34;;;;;;;1.13;1.07;;;21.00;88.70;;;;;;5038894;28;20220;-70
2023/07/13 07:41:06;;;;;;;1.50;1.27;;;21.00;86.70;;;;;;5040307;28;20295;-70
2023/07/13 07:43:32;;;;;;;1.20;1.10;;;21.10;86.60;;;;;;5042747;28;20231;-71
2023/07/13 07:45:58;;;;;;;1.27;1.17;;;21.10;86.60;;;;;;5042257;28;20530;-69
2023/07/13 07:48:24;;;;;;;2.00;1.33;;;21.20;86.90;;;;;;5032382;28;20458;-70
2023/07/13 07:50:49;;;;;;;2.00;1.10;;;21.30;86.40;;;;;;5046490;28;20221;-69
2023/07/13 07:53:15;;;;;;;6.03;1.33;;;21.30;85.90;;;;;;5053936;28;20280;-69
2023/07/13 07:55:41;;;;;;;4.27;1.30;;;21.40;86.10;;;;;;5036717;28;20220;-70
2023/07/13 07:58:07;;;;;;;2.80;1.30;;;21.60;85.50;;;;;;5029897;28;20313;-71
2023/07/13 08:00:33;;;;;;;1.73;1.30;;;21.70;84.50;;;;;;5024668;28;20606;-70
2023/07/13 08:02:59;;;;;;;1.63;1.27;;;21.70;83.60;;;;;;5025095;28;20464;-70
2023/07/13 08:05:25;;;;;;;2.13;1.47;;;21.80;83.90;;;;;;5033539;28;20470;-70
2023/07/13 08:07:51;;;;;;;1.27;1.17;;;21.90;84.30;;;;;;5040807;28;20466;-70
2023/07/13 08:10:17;;;;;;;1.20;1.10;;;21.90;84.20;;;;;;5039710;28;20470;-70
2023/07/13 08:12:43;;;;;;;3.23;1.40;;;21.90;83.30;;;;;;5040861;28;20242;-70
2023/07/13 08:15:14;;;;;;;2.80;1.30;;;22.00;83.60;;;;;;5036496;28;20220;-69
2023/07/13 08:17:40;;;;;;;3.60;1.20;;;22.00;83.30;;;;;;5034147;28;20216;-71
2023/07/13 08:20:08;;;;;;;1.43;1.03;;;22.10;83.50;;;;;;5026320;28;20467;-69
2023/07/13 08:22:35;;;;;;;2.03;1.50;;;22.20;82.90;;;;;;5039679;28;20473;-70
2023/07/13 08:25:01;;;;;;;2.00;1.40;;;22.20;83.40;;;;;;5054503;28;20539;-71
2023/07/13 08:27:28;;;;;;;1.13;1.03;;;22.50;83.10;;;;;;5037491;28;20470;-70
2023/07/13 08:29:54;;;;;;;4.20;1.20;;;22.60;83.20;;;;;;5032663;28;20460;-71
2023/07/13 08:32:22;;;;;;;7.60;1.50;;;22.80;81.60;;;;;;5025627;28;21018;-70
2023/07/13 08:34:49;;;;;;;3.10;1.47;;;22.90;80.60;;;;;;5044224;28;20227;-72
2023/07/13 08:37:15;;;;;;;1.30;1.20;;;23.00;79.70;;;;;;5047527;28;20477;-71
2023/07/13 08:39:40;;;;;;;1.60;1.50;;;23.00;79.20;;;;;;5030432;28;20458;-71
2023/07/13 08:42:27;;;;;;;1.53;1.43;;;23.00;79.20;;;;;;5043268;28;20475;-71
2023/07/13 08:45:05;;;;;;;1.63;1.23;;;23.10;79.30;;;;;;5038055;28;20602;-69
2023/07/13 08:47:35;;;;;;;4.17;1.87;;;23.00;80.20;;;;;;5019076;28;20572;-70
2023/07/13 08:50:02;;;;;;;3.63;1.30;;;23.10;79.90;;;;;;5043284;28;20470;-70
2023/07/13 08:52:39;;;;;;;1.00;1.00;;;23.20;79.00;;;;;;5023917;28;20451;-70
2023/07/13 08:55:31;;;;;;;1.60;1.50;;;23.20;78.90;;;;;;5041939;28;20466;-69
2023/07/13 08:58:12;;;;;;;1.67;1.27;;;23.40;78.90;;;;;;5033224;28;20471;-70
2023/07/13 09:00:45;;;;;;;1.77;1.60;;;23.60;79.20;;;;;;5021008;28;20459;-71
2023/07/13 09:03:24;;;;;;;3.37;1.47;;;23.80;78.80;;;;;;5047526;28;20474;-69
2023/07/13 09:05:58;;;;;;;2.73;1.57;;;23.90;76.90;;;;;;5038634;28;20470;-71
2023/07/13 09:08:23;;;;;;;1.87;1.20;;;23.90;76.10;;;;;;5031544;28;20466;-70
2023/07/13 09:10:53;;;;;;;1.13;1.03;;;23.90;76.70;;;;;;5030784;28;20462;-71
2023/07/13 09:13:47;;;;;;;1.30;1.20;;;24.10;77.10;;;;;;5044481;28;20220;-70
2023/07/13 09:16:13;;;;;;;1.27;1.17;;;24.30;74.30;;;;;;5044712;28;20668;-70
2023/07/13 09:18:43;;;;;;;1.00;1.00;;;24.40;73.90;;;;;;5044833;28;21013;-72
2023/07/13 09:21:11;;;;;;;2.67;1.10;;;24.20;74.30;;;;;;5027302;28;20675;-70
2023/07/13 09:23:38;;;;;;;1.53;1.03;;;24.40;73.60;;;;;;5036184;28;20536;-70
2023/07/13 09:26:07;;;;;;;1.50;1.00;;;24.50;72.00;;;;;;5040601;28;20566;-72
2023/07/13 09:28:42;;;;;;;1.00;0.93;;;24.50;72.10;;;;;;5032568;28;20453;-70
2023/07/13 09:31:15;;;;;;;2.70;1.17;;;24.60;70.40;;;;;;5050611;28;20461;-69
2023/07/13 09:33:42;;;;;;;1.97;1.27;;;24.60;71.10;;;;;;5027337;28;20450;-71
2023/07/13 09:36:30;;;;;;;4.37;1.13;;;24.60;71.40;;;;;;5030630;28;20476;-70
2023/07/13 09:39:08;;;;;;;2.97;1.50;;;24.70;71.30;;;;;;5043266;28;20454;-70
2023/07/13 09:42:15;;;;;;;1.17;1.17;;;24.80;71.80;;;;;;5038631;28;20473;-71
2023/07/13 09:44:47;;;;;;;1.87;1.37;;;24.90;71.40;;;;;;5039913;28;20473;-72
2023/07/13 09:47:18;;;;;;;2.00;1.20;;;25.00;72.20;;;;;;5037899;28;20468;-71
2023/07/13 09:49:44;;;;;;;1.70;1.60;;;25.10;72.90;;;;;;5039491;28;20842;-70
2023/07/13 09:52:15;;;;;;;2.33;1.17;;;25.20;71.20;;;;;;5058478;28;20537;-70
2023/07/13 09:54:45;;;;;;;1.23;1.13;;;25.20;70.80;;;;;;5022129;28;20517;-70
2023/07/13 09:57:17;;;;;;;1.20;1.10;;;25.20;71.80;;;;;;5043806;28;20462;-72
2023/07/13 09:59:48;;;;;;;1.73;1.30;;;25.50;70.40;;;;;;5035691;28;20496;-70
2023/07/13 10:02:35;;;;;;;1.73;1.30;;;25.50;71.20;;;;;;5041884;28;20797;-70
2023/07/13 10:05:10;;;;;;;4.90;1.77;;;25.70;69.70;;;;;;5044222;28;20466;-70
2023/07/13 10:07:44;;;;;;;1.10;1.00;;;25.70;70.60;;;;;;5046237;28;20492;-70
2023/07/13 10:10:15;;;;;;;1.37;1.20;;;25.90;69.30;;;;;;5040499;28;20569;-71
2023/07/13 10:12:41;;;;;;;1.20;1.03;;;25.90;68.60;;;;;;5023415;28;20462;-71
2023/07/13 10:15:15;;;;;;;1.63;1.53;;;26.00;67.50;;;;;;5038638;28;20475;-70
2023/07/13 10:17:42;;;;;;;5.40;1.50;;;26.10;67.30;;;;;;5026007;28;20290;-70
2023/07/13 10:20:12;;;;;;;1.30;1.20;;;26.20;65.90;;;;;;5042548;28;20495;-70
2023/07/13 10:23:11;;;;;;;3.40;1.50;;;26.20;66.70;;;;;;5043144;28;20462;-71
2023/07/13 10:25:42;;;;;;;1.70;1.40;;;26.20;66.40;;;;;;5056861;28;20474;-70
2023/07/13 10:28:32;;;;;;;2.27;1.30;;;26.40;65.10;;;;;;5040288;28;20585;-70
2023/07/13 10:31:01;;;;;;;1.33;1.23;;;26.20;65.80;;;;;;5032808;28;20469;-71
2023/07/13 10:33:27;;;;;;;1.30;1.17;;;26.30;66.10;;;;;;5025961;28;20450;-70
2023/07/13 10:36:01;;;;;;;1.80;1.23;;;26.50;65.30;;;;;;5019575;28;20458;-71
2023/07/13 10:38:28;;;;;;;1.80;1.13;;;26.60;66.10;;;;;;5034325;28;20219;-70
2023/07/13 10:41:09;;;;;;;1.60;1.50;;;27.00;64.70;;;;;;5039844;28;20493;-72
2023/07/13 10:43:45;;;;;;;1.57;1.33;;;26.80;65.00;;;;;;5047903;28;20970;-70
2023/07/13 10:46:15;;;;;;;3.13;1.63;;;26.90;65.60;;;;;;5034554;28;20492;-70
2023/07/13 10:48:43;;;;;;;1.40;1.30;;;27.10;64.60;;;;;;5023457;28;20497;-70
2023/07/13 10:51:11;;;;;;;1.43;1.23;;;27.00;63.50;;;;;;5022354;28;20482;-70
2023/07/13 10:53:42;;;;;;;1.83;1.60;;;27.20;61.40;;;;;;5035032;28;20458;-70
2023/07/13 10:56:12;;;;;;;1.13;1.03;;;27.30;62.60;;;;;;5039003;28;21004;-70
2023/07/13 10:58:42;;;;;;;1.30;1.20;;;27.20;63.10;;;;;;5060084;28;20461;-72
2023/07/13 11:01:15;;;;;;;1.47;1.37;;;27.40;62.30;;;;;;5031456;28;20297;-71
2023/07/13 11:03:43;;;;;;;1.13;1.13;;;27.60;61.50;;;;;;5049881;28;20219;-70
2023/07/13 11:06:33;;;;;;;2.50;1.37;;;27.70;60.70;;;;;;5022597;28;20228;-70
2023/07/13 11:09:40;;;;;;;1.40;1.30;;;27.80;60.10;;;;;;5042082;28;20228;-70
2023/07/13 11:12:28;;;;;;;1.33;1.23;;;28.00;60.20;;;;;;5026650;28;20208;-70
2023/07/13 11:14:54;;;;;;;1.67;1.57;;;28.00;59.80;;;;;;5048397;28;20225;-71
2023/07/13 11:17:37;;;;;;;1.70;1.60;;;28.10;58.90;;;;;;5040509;28;20226;-72
2023/07/13 11:20:12;;;;;;;1.43;1.33;;;28.00;59.50;;;;;;5044213;28;20278;-70
2023/07/13 11:22:49;;;;;;;1.73;1.20;;;27.70;59.80;;;;;;5027856;28;21122;-71
2023/07/13 11:25:26;;;;;;;1.30;1.20;;;27.70;61.10;;;;;;5028094;28;20289;-70
2023/07/13 11:28:10;;;;;;;1.43;1.20;;;27.70;61.20;;;;;;5030101;28;20673;-69
2023/07/13 11:30:40;;;;;;;1.47;1.37;;;27.80;59.80;;;;;;5027394;28;20221;-70
2023/07/13 11:33:12;;;;;;;2.20;1.40;;;27.50;59.70;;;;;;5034424;28;20231;-70
2023/07/13 11:35:44;;;;;;;1.63;1.40;;;27.30;60.00;;;;;;5025027;28;20685;-70
2023/07/13 11:38:19;;;;;;;1.65;1.15;;;27.60;59.50;;;;;;5041419;28;20220;-70
2023/07/13 11:40:50;;;;;;;1.40;1.10;;;27.70;59.80;;;;;;5044117;28;20637;-70
2023/07/13 11:43:16;;;;;;;1.30;1.20;;;27.80;59.70;;;;;;5024893;28;20223;-70
2023/07/13 11:45:43;;;;;;;2.77;1.43;;;27.70;59.40;;;;;;5023112;28;20455;-70
2023/07/13 11:48:18;;;;;;;2.13;1.27;;;27.70;59.40;;;;;;5036097;28;20250;-70
2023/07/13 11:50:55;;;;;;;1.50;1.37;;;27.80;59.00;;;;;;5041275;28;20238;-70
2023/07/13 11:53:22;;;;;;;2.07;1.97;;;27.80;59.10;;;;;;5039502;28;20220;-70
2023/07/13 11:55:49;;;;;;;1.27;1.17;;;27.70;58.80;;;;;;5040997;28;20462;-70
2023/07/13 11:58:20;;;;;;;3.00;1.53;;;27.50;58.80;;;;;;5039189;28;20761;-70
2023/07/13 12:00:47;;;;;;;3.40;1.50;;;27.50;59.00;;;;;;5029800;28;20977;-69
2023/07/13 12:03:20;;;;;;;1.60;1.37;;;27.40;59.20;;;;;;5038393;28;20277;-70
2023/07/13 12:06:01;;;;;;;2.93;1.57;;;27.40;59.20;;;;;;5039465;28;20554;-71
2023/07/13 12:08:28;;;;;;;1.37;1.37;;;27.30;59.00;;;;;;5036242;28;20981;-70
2023/07/13 12:11:00;;;;;;;1.40;1.23;;;27.20;59.00;;;;;;5030045;28;20236;-70
2023/07/13 12:13:28;;;;;;;2.80;1.93;;;27.20;59.10;;;;;;5041969;28;20462;-71
2023/07/13 12:15:56;;;;;;;1.80;1.43;;;27.20;59.20;;;;;;5035019;28;20852;-70
2023/07/13 12:18:28;;;;;;;1.33;1.23;;;27.30;59.20;;;;;;5041928;28;20531;-71
2023/07/13 12:20:57;;;;;;;1.30;1.20;;;27.30;59.10;;;;;;5022416;28;20477;-70
2023/07/13 12:23:34;;;;;;;1.10;1.00;;;27.30;59.20;;;;;;5022993;28;20212;-70
2023/07/13 12:26:03;;;;;;;2.23;1.40;;;27.20;59.40;;;;;;5036542;28;20486;-70
2023/07/13 12:28:37;;;;;;;1.50;1.40;;;27.20;59.50;;;;;;5045080;28;21041;-70
2023/07/13 12:31:25;;;;;;;2.30;1.40;;;27.30;59.30;;;;;;5038227;28;20204;-70
2023/07/13 12:33:58;;;;;;;1.50;1.20;;;27.10;58.90;;;;;;5041669;28;20215;-70
2023/07/13 12:36:24;;;;;;;2.07;1.40;;;27.10;59.10;;;;;;5035234;28;20243;-70
2023/07/13 12:38:51;;;;;;;4.37;1.70;;;27.10;58.80;;;;;;5039900;28;20498;-70
2023/07/13 12:41:17;;;;;;;3.20;1.80;;;27.00;58.60;;;;;;5037782;28;20227;-71
2023/07/13 12:43:45;;;;;;;2.50;1.63;;;27.00;59.10;;;;;;5026177;28;20473;-71
2023/07/13 12:46:23;;;;;;;2.43;1.63;;;27.00;59.10;;;;;;5043706;28;20466;-70
2023/07/13 12:48:52;;;;;;;1.37;1.23;;;26.90;59.10;;;;;;5035937;28;20458;-70
2023/07/13 12:51:22;;;;;;;2.63;1.70;;;26.70;58.90;;;;;;5015703;28;20470;-71
2023/07/13 12:53:54;;;;;;;2.13;1.53;;;26.70;59.20;;;;;;5040334;28;20471;-70
2023/07/13 12:56:24;;;;;;;3.00;1.53;;;26.70;59.70;;;;;;5052256;28;20521;-71